Nearby METAR Reports

KLNK - Lincoln, Nebraska, USA
Distance from station: WNW 8mi, 13km
Updated: Sat, 23-Sep-2017 10:54am CDT
Clear
Clear
 Wind from S
Wind: S 15 mph , 24 km/h
Temperature: 84°F , 29°C
Heat Index: 86°F , 30°C
Dew Point: 66°F , 19°C
Humidity: 55%
Barometer: 29.94 inHg , 1013.9 hPa
Clouds: Clear
Visibility: 10 miles , 16 km
2017/09/23 15:54 KLNK 231554Z 17013KT 10SM CLR 29/19 A2994 RMK AO2 SLP125 T02940194
KAHQ - Wahoo, Nebraska, USA
Distance from station: N 31mi, 49km
Updated: Sat, 23-Sep-2017 11:15am CDT
Partly Cloudy
Partly Cloudy
 Wind from S
Wind: S 14 mph , 22 km/h, Gust: 18 mph , 30 km/h
Temperature: 86°F , 30°C
Heat Index: 88°F , 31°C
Dew Point: 66°F , 19°C
Humidity: 52%
Barometer: 29.95 inHg , 1014.2 hPa
Clouds: Partly Cloudy
Visibility: 10 miles , 16 km
Cloud details: Partly Cloudy 7500 ft
2017/09/23 16:15 KAHQ 231615Z AUTO 17012G16KT 10SM SCT075 30/19 A2995 RMK AO2 T02960189
 
KBIE - Beatrice Municip, Nebraska, USA
Distance from station: S 36mi, 57km
Updated: Sat, 23-Sep-2017 11:15am CDT
Clear
Clear
 Wind from S
Wind: S 16 mph , 26 km/h, Gust: 22 mph , 35 km/h
Temperature: 86°F , 30°C
Heat Index: 89°F , 32°C
Dew Point: 68°F , 20°C
Humidity: 55%
Barometer: 29.96 inHg , 1014.6 hPa
Clouds: Clear
Visibility: 10 miles , 16 km
2017/09/23 16:15 KBIE 231615Z AUTO 18014G19KT 10SM CLR 30/20 A2996 RMK AO2 T02960196
KMLE - Omaha/Millard, Nebraska, USA
Distance from station: NE 39mi, 63km
Updated: Sat, 23-Sep-2017 11:15am CDT
Clear
Clear
 Wind from SSE
Wind: SSE 10 mph , 17 km/h, Gust: 18 mph , 30 km/h
Temperature: 86°F , 30°C
Heat Index: 89°F , 32°C
Dew Point: 68°F , 20°C
Humidity: 55%
Barometer: 29.96 inHg , 1014.6 hPa
Clouds: Clear
Visibility: 10 miles , 16 km
2017/09/23 16:15 KMLE 231615Z AUTO 16009G16KT 10SM CLR 30/20 A2996 RMK AO2 T02960204
 
KPMV - Plattsmouth Muni, Nebraska, USA
Distance from station: ENE 39mi, 63km
Updated: Sat, 23-Sep-2017 11:15am CDT
Clear
Clear
 Wind from SSE
Wind: SSE 9 mph , 15 km/h
Temperature: 82°F , 28°C
Heat Index: 85°F , 29°C
Dew Point: 68°F , 20°C
Humidity: 62%
Barometer: 29.98 inHg , 1015.2 hPa
Clouds: Clear
Visibility: 10 miles , 16 km
2017/09/23 16:15 KPMV 231615Z AUTO 16008KT 10SM CLR 28/20 A2998 RMK AO2 T02830201
KAFK - Nebraska City, Nebraska, USA
Distance from station: ESE 43mi, 69km
Updated: Sat, 23-Sep-2017 11:15am CDT
Clear
Clear
 Wind from S
Wind: S 12 mph , 19 km/h, Gust: 20 mph , 31 km/h
Temperature: 82°F , 28°C
Heat Index: 86°F , 30°C
Dew Point: 70°F , 21°C
Humidity: 66%
Barometer: 29.99 inHg , 1015.6 hPa
Clouds: Clear
Visibility: 10 miles , 16 km
2017/09/23 16:15 KAFK 231615Z AUTO 18010G17KT 10SM CLR 28/21 A2999 RMK AO2 T02830206
 
KOFF - Offutt Afb/Belle, Nebraska, USA
Distance from station: ENE 44mi, 70km
Updated: Sat, 23-Sep-2017 10:56am CDT
Clear
Clear
 Wind from SSE
Wind: SSE 13 mph , 20 km/h
Temperature: 82°F , 28°C
Heat Index: 85°F , 29°C
Dew Point: 68°F , 20°C
Humidity: 62%
Barometer: 29.97 inHg , 1014.9 hPa
Clouds: Clear
Visibility: 10 miles , 16 km
2017/09/23 15:56 KOFF 231556Z AUTO 15011KT 10SM CLR 28/20 A2997 RMK AO2 SLP143 T02790196 $
KFET - Fremont Muni Arp, Nebraska, USA
Distance from station: N 46mi, 74km
Updated: Sat, 23-Sep-2017 11:15am CDT
Partly Cloudy
Partly Cloudy
 Wind from S
Wind: S 8 mph , 13 km/h
Temperature: 82°F , 28°C
Heat Index: 85°F , 29°C
Dew Point: 68°F , 20°C
Humidity: 62%
Barometer: 29.96 inHg , 1014.6 hPa
Clouds: Partly Cloudy
Visibility: 10 miles , 16 km
Cloud details: Partly Cloudy 7500 ft
2017/09/23 16:15 KFET 231615Z AUTO 17007KT 10SM SCT075 28/20 A2996 RMK AO2 T02800195
 
KBTA - Blair Muni, Nebraska, USA
Distance from station: NNE 51mi, 82km
Updated: Sat, 23-Sep-2017 11:15am CDT
Clear
Clear
 Wind from S
Wind: S 10 mph , 17 km/h
Temperature: 82°F , 28°C
Heat Index: 85°F , 29°C
Dew Point: 68°F , 20°C
Humidity: 62%
Barometer: 29.97 inHg , 1014.9 hPa
Clouds: Clear
Visibility: 10 miles , 16 km
2017/09/23 16:15 KBTA 231615Z AUTO 18009KT 10SM CLR 28/20 A2997 RMK AO2 T02780199
KJYR - York, Nebraska, USA
Distance from station: W 52mi, 84km
Updated: Sat, 23-Sep-2017 11:15am CDT
Partly Cloudy
Partly Cloudy
 Wind from S
Wind: S 14 mph , 22 km/h, Gust: 18 mph , 30 km/h
Temperature: 77°F , 25°C
Dew Point: 66°F , 19°C
Humidity: 69%
Barometer: 29.94 inHg , 1013.9 hPa
Clouds: Partly Cloudy
Visibility: 10 miles , 16 km
Cloud details: Partly Cloudy 7000 ft
2017/09/23 16:15 KJYR 231615Z AUTO 18012G16KT 10SM SCT070 25/19 A2994 RMK AO2
 
KOMA - Omaha/Eppley, Nebraska, USA
Distance from station: NE 53mi, 85km
Updated: Sat, 23-Sep-2017 10:52am CDT
Mostly Cloudy
Mostly Cloudy
 Wind from S
Wind: S 15 mph , 24 km/h
Temperature: 82°F , 28°C
Heat Index: 84°F , 29°C
Dew Point: 66°F , 19°C
Humidity: 58%
Barometer: 29.97 inHg , 1014.9 hPa
Clouds: Mostly Cloudy
Visibility: 10 miles , 16 km
Cloud details: Few Clouds 3000 ft
Partly Cloudy 15000 ft
Mostly Cloudy 20000 ft
2017/09/23 15:52 KOMA 231552Z 17013KT 10SM FEW030 SCT150 BKN200 28/19 A2997 RMK AO2 SLP137 T02830194
KOLU - Columbus Muni, Nebraska, USA
Distance from station: NW 58mi, 93km
Updated: Sat, 23-Sep-2017 10:56am CDT
Clear
Clear
 Wind from SSE
Wind: SSE 8 mph , 13 km/h
Temperature: 79°F , 26°C
Dew Point: 68°F , 20°C
Humidity: 70%
Barometer: 29.94 inHg , 1013.9 hPa
Clouds: Clear
Visibility: 10 miles , 16 km
2017/09/23 15:56 KOLU 231556Z AUTO 15007KT 10SM CLR 26/20 A2994 RMK AO2 SLP127 T02610200